sensor_id;sensor_type;location;lat;lon;timestamp;P1;durP1;ratioP1;P2;durP2;ratioP2
6356;SDS011;3211;53.452;-2.264;2023-08-07T00:02:25;6.17;;;2.57;;
6356;SDS011;3211;53.452;-2.264;2023-08-07T00:05:07;6.77;;;3.27;;
6356;SDS011;3211;53.452;-2.264;2023-08-07T00:07:49;8.30;;;3.30;;
6356;SDS011;3211;53.452;-2.264;2023-08-07T00:10:33;4.23;;;2.73;;
6356;SDS011;3211;53.452;-2.264;2023-08-07T00:13:15;4.70;;;2.63;;
6356;SDS011;3211;53.452;-2.264;2023-08-07T00:15:57;8.07;;;3.50;;
6356;SDS011;3211;53.452;-2.264;2023-08-07T00:18:39;8.87;;;3.30;;
6356;SDS011;3211;53.452;-2.264;2023-08-07T00:21:20;5.93;;;3.10;;
6356;SDS011;3211;53.452;-2.264;2023-08-07T00:24:03;4.83;;;2.80;;
6356;SDS011;3211;53.452;-2.264;2023-08-07T00:26:46;9.33;;;3.10;;
6356;SDS011;3211;53.452;-2.264;2023-08-07T00:29:28;7.70;;;3.40;;
6356;SDS011;3211;53.452;-2.264;2023-08-07T00:32:10;7.20;;;2.70;;
6356;SDS011;3211;53.452;-2.264;2023-08-07T00:34:52;8.03;;;3.20;;
6356;SDS011;3211;53.452;-2.264;2023-08-07T00:37:34;5.33;;;2.97;;
6356;SDS011;3211;53.452;-2.264;2023-08-07T00:40:16;4.70;;;3.23;;
6356;SDS011;3211;53.452;-2.264;2023-08-07T00:43:00;3.73;;;3.03;;
6356;SDS011;3211;53.452;-2.264;2023-08-07T00:45:42;5.43;;;2.90;;
6356;SDS011;3211;53.452;-2.264;2023-08-07T00:48:29;5.97;;;2.73;;
6356;SDS011;3211;53.452;-2.264;2023-08-07T00:51:12;4.57;;;3.10;;
6356;SDS011;3211;53.452;-2.264;2023-08-07T00:53:54;5.73;;;2.70;;
6356;SDS011;3211;53.452;-2.264;2023-08-07T00:56:37;4.73;;;2.63;;
6356;SDS011;3211;53.452;-2.264;2023-08-07T00:59:22;6.83;;;2.70;;
6356;SDS011;3211;53.452;-2.264;2023-08-07T01:02:04;3.70;;;2.80;;
6356;SDS011;3211;53.452;-2.264;2023-08-07T01:04:47;5.63;;;3.00;;
6356;SDS011;3211;53.452;-2.264;2023-08-07T01:07:28;7.27;;;3.10;;
6356;SDS011;3211;53.452;-2.264;2023-08-07T01:10:10;5.10;;;3.23;;
6356;SDS011;3211;53.452;-2.264;2023-08-07T01:12:54;10.47;;;3.83;;
6356;SDS011;3211;53.452;-2.264;2023-08-07T01:15:43;5.30;;;3.20;;
6356;SDS011;3211;53.452;-2.264;2023-08-07T01:18:26;7.07;;;3.40;;
6356;SDS011;3211;53.452;-2.264;2023-08-07T01:21:16;7.17;;;3.23;;
6356;SDS011;3211;53.452;-2.264;2023-08-07T01:24:00;8.63;;;3.00;;
6356;SDS011;3211;53.452;-2.264;2023-08-07T01:26:42;4.40;;;3.10;;
6356;SDS011;3211;53.452;-2.264;2023-08-07T01:29:26;4.40;;;3.23;;
6356;SDS011;3211;53.452;-2.264;2023-08-07T01:32:16;6.30;;;3.57;;
6356;SDS011;3211;53.452;-2.264;2023-08-07T01:35:14;5.37;;;3.50;;
6356;SDS011;3211;53.452;-2.264;2023-08-07T01:37:57;5.43;;;3.73;;
6356;SDS011;3211;53.452;-2.264;2023-08-07T01:40:42;6.13;;;3.80;;
6356;SDS011;3211;53.452;-2.264;2023-08-07T01:43:25;7.83;;;3.53;;
6356;SDS011;3211;53.452;-2.264;2023-08-07T01:46:08;8.43;;;3.90;;
6356;SDS011;3211;53.452;-2.264;2023-08-07T01:48:51;6.47;;;4.07;;
6356;SDS011;3211;53.452;-2.264;2023-08-07T01:51:33;6.90;;;3.60;;
6356;SDS011;3211;53.452;-2.264;2023-08-07T01:54:15;8.10;;;3.57;;
6356;SDS011;3211;53.452;-2.264;2023-08-07T01:56:58;8.73;;;4.10;;
6356;SDS011;3211;53.452;-2.264;2023-08-07T01:59:40;9.33;;;4.10;;
6356;SDS011;3211;53.452;-2.264;2023-08-07T02:02:23;8.53;;;4.10;;
6356;SDS011;3211;53.452;-2.264;2023-08-07T02:05:05;5.10;;;4.10;;
6356;SDS011;3211;53.452;-2.264;2023-08-07T02:07:47;7.70;;;4.20;;
6356;SDS011;3211;53.452;-2.264;2023-08-07T02:10:29;4.00;;;3.50;;
6356;SDS011;3211;53.452;-2.264;2023-08-07T02:13:13;7.83;;;3.97;;
6356;SDS011;3211;53.452;-2.264;2023-08-07T02:15:55;9.23;;;3.60;;
6356;SDS011;3211;53.452;-2.264;2023-08-07T02:18:37;7.20;;;3.40;;
6356;SDS011;3211;53.452;-2.264;2023-08-07T02:21:18;6.67;;;3.80;;
6356;SDS011;3211;53.452;-2.264;2023-08-07T02:24:00;4.80;;;3.30;;
6356;SDS011;3211;53.452;-2.264;2023-08-07T02:26:42;4.30;;;3.03;;
6356;SDS011;3211;53.452;-2.264;2023-08-07T02:29:26;3.87;;;3.20;;
6356;SDS011;3211;53.452;-2.264;2023-08-07T02:32:08;3.77;;;2.50;;
6356;SDS011;3211;53.452;-2.264;2023-08-07T02:34:49;5.40;;;3.00;;
6356;SDS011;3211;53.452;-2.264;2023-08-07T02:37:31;7.67;;;3.07;;
6356;SDS011;3211;53.452;-2.264;2023-08-07T02:40:13;5.30;;;3.07;;
6356;SDS011;3211;53.452;-2.264;2023-08-07T02:42:57;3.30;;;2.70;;
6356;SDS011;3211;53.452;-2.264;2023-08-07T02:45:41;4.53;;;2.70;;
6356;SDS011;3211;53.452;-2.264;2023-08-07T02:48:22;8.47;;;2.73;;
6356;SDS011;3211;53.452;-2.264;2023-08-07T02:51:04;5.70;;;2.70;;
6356;SDS011;3211;53.452;-2.264;2023-08-07T02:53:46;7.13;;;2.70;;
6356;SDS011;3211;53.452;-2.264;2023-08-07T02:56:28;4.17;;;2.70;;
6356;SDS011;3211;53.452;-2.264;2023-08-07T02:59:10;4.40;;;2.60;;
6356;SDS011;3211;53.452;-2.264;2023-08-07T03:01:53;6.27;;;3.10;;
6356;SDS011;3211;53.452;-2.264;2023-08-07T03:04:35;7.40;;;2.80;;
6356;SDS011;3211;53.452;-2.264;2023-08-07T03:07:17;6.13;;;2.20;;
6356;SDS011;3211;53.452;-2.264;2023-08-07T03:09:59;6.40;;;2.30;;
6356;SDS011;3211;53.452;-2.264;2023-08-07T03:12:41;4.33;;;2.00;;
6356;SDS011;3211;53.452;-2.264;2023-08-07T03:15:23;3.73;;;2.30;;
6356;SDS011;3211;53.452;-2.264;2023-08-07T03:18:06;6.27;;;2.57;;
6356;SDS011;3211;53.452;-2.264;2023-08-07T03:20:48;2.00;;;1.77;;
6356;SDS011;3211;53.452;-2.264;2023-08-07T03:23:30;3.80;;;2.10;;
6356;SDS011;3211;53.452;-2.264;2023-08-07T03:26:12;5.17;;;1.90;;
6356;SDS011;3211;53.452;-2.264;2023-08-07T03:28:54;2.40;;;1.70;;
6356;SDS011;3211;53.452;-2.264;2023-08-07T03:31:36;2.97;;;1.80;;
6356;SDS011;3211;53.452;-2.264;2023-08-07T03:34:19;3.93;;;1.77;;
6356;SDS011;3211;53.452;-2.264;2023-08-07T03:37:01;4.27;;;1.77;;
6356;SDS011;3211;53.452;-2.264;2023-08-07T03:39:43;1.70;;;1.50;;
6356;SDS011;3211;53.452;-2.264;2023-08-07T03:42:28;3.00;;;1.83;;
6356;SDS011;3211;53.452;-2.264;2023-08-07T03:45:10;4.50;;;1.60;;
6356;SDS011;3211;53.452;-2.264;2023-08-07T03:47:51;1.90;;;1.80;;
6356;SDS011;3211;53.452;-2.264;2023-08-07T03:50:35;1.80;;;1.60;;
6356;SDS011;3211;53.452;-2.264;2023-08-07T03:53:18;5.93;;;2.20;;
6356;SDS011;3211;53.452;-2.264;2023-08-07T03:56:00;4.73;;;1.93;;
6356;SDS011;3211;53.452;-2.264;2023-08-07T03:58:42;2.93;;;1.70;;
6356;SDS011;3211;53.452;-2.264;2023-08-07T04:01:24;3.17;;;1.80;;
6356;SDS011;3211;53.452;-2.264;2023-08-07T04:04:05;5.37;;;2.00;;
6356;SDS011;3211;53.452;-2.264;2023-08-07T04:06:49;3.57;;;1.83;;
6356;SDS011;3211;53.452;-2.264;2023-08-07T04:09:31;2.67;;;1.80;;
6356;SDS011;3211;53.452;-2.264;2023-08-07T04:12:13;5.13;;;2.10;;
6356;SDS011;3211;53.452;-2.264;2023-08-07T04:14:55;3.77;;;1.50;;
6356;SDS011;3211;53.452;-2.264;2023-08-07T04:17:37;3.73;;;1.80;;
6356;SDS011;3211;53.452;-2.264;2023-08-07T04:20:19;5.37;;;1.77;;
6356;SDS011;3211;53.452;-2.264;2023-08-07T04:23:02;3.10;;;1.77;;
6356;SDS011;3211;53.452;-2.264;2023-08-07T04:25:44;3.83;;;1.77;;
6356;SDS011;3211;53.452;-2.264;2023-08-07T04:28:27;3.50;;;1.43;;
6356;SDS011;3211;53.452;-2.264;2023-08-07T04:31:09;5.97;;;1.80;;
6356;SDS011;3211;53.452;-2.264;2023-08-07T04:33:51;4.60;;;1.70;;
6356;SDS011;3211;53.452;-2.264;2023-08-07T04:36:33;4.43;;;1.70;;
6356;SDS011;3211;53.452;-2.264;2023-08-07T04:39:17;4.33;;;1.70;;
6356;SDS011;3211;53.452;-2.264;2023-08-07T04:41:59;2.43;;;1.60;;
6356;SDS011;3211;53.452;-2.264;2023-08-07T04:44:40;3.43;;;1.80;;
6356;SDS011;3211;53.452;-2.264;2023-08-07T04:47:22;4.40;;;1.90;;
6356;SDS011;3211;53.452;-2.264;2023-08-07T04:50:05;3.83;;;1.77;;
6356;SDS011;3211;53.452;-2.264;2023-08-07T04:52:47;5.37;;;2.30;;
6356;SDS011;3211;53.452;-2.264;2023-08-07T04:55:30;6.37;;;1.97;;
6356;SDS011;3211;53.452;-2.264;2023-08-07T04:58:12;3.40;;;1.63;;
6356;SDS011;3211;53.452;-2.264;2023-08-07T05:00:55;2.87;;;1.67;;
6356;SDS011;3211;53.452;-2.264;2023-08-07T05:03:37;2.33;;;2.13;;
6356;SDS011;3211;53.452;-2.264;2023-08-07T05:06:19;2.67;;;1.70;;
6356;SDS011;3211;53.452;-2.264;2023-08-07T05:09:01;3.47;;;2.20;;
6356;SDS011;3211;53.452;-2.264;2023-08-07T05:11:45;2.73;;;2.00;;
6356;SDS011;3211;53.452;-2.264;2023-08-07T05:14:27;3.73;;;1.97;;
6356;SDS011;3211;53.452;-2.264;2023-08-07T05:17:10;3.80;;;2.00;;
6356;SDS011;3211;53.452;-2.264;2023-08-07T05:19:53;4.80;;;1.80;;
6356;SDS011;3211;53.452;-2.264;2023-08-07T05:22:35;4.23;;;2.10;;
6356;SDS011;3211;53.452;-2.264;2023-08-07T05:25:17;1.93;;;1.67;;
6356;SDS011;3211;53.452;-2.264;2023-08-07T05:28:00;4.93;;;1.80;;
6356;SDS011;3211;53.452;-2.264;2023-08-07T05:30:43;3.50;;;1.70;;
6356;SDS011;3211;53.452;-2.264;2023-08-07T05:33:25;5.27;;;1.90;;
6356;SDS011;3211;53.452;-2.264;2023-08-07T05:36:06;2.53;;;2.20;;
6356;SDS011;3211;53.452;-2.264;2023-08-07T05:38:48;2.47;;;1.70;;
6356;SDS011;3211;53.452;-2.264;2023-08-07T05:41:30;4.30;;;1.93;;
6356;SDS011;3211;53.452;-2.264;2023-08-07T05:44:14;2.77;;;1.90;;
6356;SDS011;3211;53.452;-2.264;2023-08-07T05:46:56;4.93;;;2.13;;
6356;SDS011;3211;53.452;-2.264;2023-08-07T05:49:37;2.33;;;2.13;;
6356;SDS011;3211;53.452;-2.264;2023-08-07T05:52:20;3.47;;;1.70;;
6356;SDS011;3211;53.452;-2.264;2023-08-07T05:55:02;4.13;;;2.03;;
6356;SDS011;3211;53.452;-2.264;2023-08-07T05:57:44;8.03;;;2.03;;
6356;SDS011;3211;53.452;-2.264;2023-08-07T06:00:27;2.50;;;1.67;;
6356;SDS011;3211;53.452;-2.264;2023-08-07T06:03:09;4.33;;;2.10;;
6356;SDS011;3211;53.452;-2.264;2023-08-07T06:05:51;2.53;;;1.90;;
6356;SDS011;3211;53.452;-2.264;2023-08-07T06:08:33;5.93;;;2.20;;
6356;SDS011;3211;53.452;-2.264;2023-08-07T06:11:15;5.70;;;1.97;;
6356;SDS011;3211;53.452;-2.264;2023-08-07T06:13:57;5.40;;;2.47;;
6356;SDS011;3211;53.452;-2.264;2023-08-07T06:16:40;2.33;;;1.73;;
6356;SDS011;3211;53.452;-2.264;2023-08-07T06:19:22;5.90;;;2.10;;
6356;SDS011;3211;53.452;-2.264;2023-08-07T06:22:07;3.13;;;2.30;;
6356;SDS011;3211;53.452;-2.264;2023-08-07T06:24:49;5.13;;;1.90;;
6356;SDS011;3211;53.452;-2.264;2023-08-07T06:27:30;5.20;;;2.17;;
6356;SDS011;3211;53.452;-2.264;2023-08-07T06:30:12;4.13;;;1.80;;
6356;SDS011;3211;53.452;-2.264;2023-08-07T06:32:56;3.23;;;1.97;;
6356;SDS011;3211;53.452;-2.264;2023-08-07T06:35:38;1.97;;;1.83;;
6356;SDS011;3211;53.452;-2.264;2023-08-07T06:38:22;4.67;;;2.03;;
6356;SDS011;3211;53.452;-2.264;2023-08-07T06:41:04;6.00;;;2.23;;
6356;SDS011;3211;53.452;-2.264;2023-08-07T06:43:46;4.40;;;1.93;;
6356;SDS011;3211;53.452;-2.264;2023-08-07T06:46:29;6.97;;;2.27;;
6356;SDS011;3211;53.452;-2.264;2023-08-07T06:49:13;6.90;;;2.10;;
6356;SDS011;3211;53.452;-2.264;2023-08-07T06:51:55;4.30;;;1.80;;
6356;SDS011;3211;53.452;-2.264;2023-08-07T06:54:36;4.57;;;2.30;;
6356;SDS011;3211;53.452;-2.264;2023-08-07T06:57:18;3.33;;;1.93;;
6356;SDS011;3211;53.452;-2.264;2023-08-07T07:00:00;4.10;;;2.30;;
6356;SDS011;3211;53.452;-2.264;2023-08-07T07:02:42;7.20;;;2.30;;
6356;SDS011;3211;53.452;-2.264;2023-08-07T07:05:25;4.67;;;1.80;;
6356;SDS011;3211;53.452;-2.264;2023-08-07T07:08:07;10.63;;;2.27;;
6356;SDS011;3211;53.452;-2.264;2023-08-07T07:10:49;2.93;;;1.80;;
6356;SDS011;3211;53.452;-2.264;2023-08-07T07:13:31;7.23;;;2.20;;
6356;SDS011;3211;53.452;-2.264;2023-08-07T07:16:13;5.13;;;2.30;;
6356;SDS011;3211;53.452;-2.264;2023-08-07T07:18:55;5.53;;;1.90;;
6356;SDS011;3211;53.452;-2.264;2023-08-07T07:21:39;2.60;;;1.80;;
6356;SDS011;3211;53.452;-2.264;2023-08-07T07:24:21;6.40;;;2.00;;
6356;SDS011;3211;53.452;-2.264;2023-08-07T07:27:03;4.77;;;1.80;;
6356;SDS011;3211;53.452;-2.264;2023-08-07T07:29:46;8.13;;;3.90;;
6356;SDS011;3211;53.452;-2.264;2023-08-07T07:32:28;4.60;;;1.70;;
6356;SDS011;3211;53.452;-2.264;2023-08-07T07:35:10;3.37;;;1.80;;
6356;SDS011;3211;53.452;-2.264;2023-08-07T07:37:53;4.30;;;2.00;;
6356;SDS011;3211;53.452;-2.264;2023-08-07T07:40:35;3.60;;;1.90;;
6356;SDS011;3211;53.452;-2.264;2023-08-07T07:43:17;9.63;;;1.77;;
6356;SDS011;3211;53.452;-2.264;2023-08-07T07:45:59;7.10;;;2.07;;
6356;SDS011;3211;53.452;-2.264;2023-08-07T07:48:41;6.50;;;2.27;;
6356;SDS011;3211;53.452;-2.264;2023-08-07T07:51:23;7.90;;;2.10;;
6356;SDS011;3211;53.452;-2.264;2023-08-07T07:54:07;3.30;;;2.00;;
6356;SDS011;3211;53.452;-2.264;2023-08-07T07:56:49;4.60;;;2.50;;
6356;SDS011;3211;53.452;-2.264;2023-08-07T07:59:31;5.37;;;2.30;;
6356;SDS011;3211;53.452;-2.264;2023-08-07T08:02:13;2.70;;;1.83;;
6356;SDS011;3211;53.452;-2.264;2023-08-07T08:04:58;2.33;;;1.80;;
6356;SDS011;3211;53.452;-2.264;2023-08-07T08:07:39;7.43;;;2.40;;
6356;SDS011;3211;53.452;-2.264;2023-08-07T08:10:23;6.40;;;2.20;;
6356;SDS011;3211;53.452;-2.264;2023-08-07T08:13:08;2.67;;;1.90;;
6356;SDS011;3211;53.452;-2.264;2023-08-07T08:15:50;3.43;;;1.77;;
6356;SDS011;3211;53.452;-2.264;2023-08-07T08:18:32;2.80;;;1.90;;
6356;SDS011;3211;53.452;-2.264;2023-08-07T08:21:14;3.27;;;1.97;;
6356;SDS011;3211;53.452;-2.264;2023-08-07T08:23:56;6.50;;;1.90;;
6356;SDS011;3211;53.452;-2.264;2023-08-07T08:26:39;10.27;;;2.10;;
6356;SDS011;3211;53.452;-2.264;2023-08-07T08:29:21;3.33;;;1.80;;
6356;SDS011;3211;53.452;-2.264;2023-08-07T08:32:03;2.90;;;2.00;;
6356;SDS011;3211;53.452;-2.264;2023-08-07T08:34:45;4.20;;;1.63;;
6356;SDS011;3211;53.452;-2.264;2023-08-07T08:37:29;2.70;;;1.60;;
6356;SDS011;3211;53.452;-2.264;2023-08-07T08:40:11;3.73;;;1.63;;
6356;SDS011;3211;53.452;-2.264;2023-08-07T08:42:58;5.30;;;1.83;;
6356;SDS011;3211;53.452;-2.264;2023-08-07T08:45:45;4.00;;;1.83;;
6356;SDS011;3211;53.452;-2.264;2023-08-07T08:48:33;3.13;;;1.57;;
6356;SDS011;3211;53.452;-2.264;2023-08-07T08:51:16;6.17;;;1.80;;
6356;SDS011;3211;53.452;-2.264;2023-08-07T08:53:59;6.40;;;1.93;;
6356;SDS011;3211;53.452;-2.264;2023-08-07T08:56:42;1.87;;;1.50;;
6356;SDS011;3211;53.452;-2.264;2023-08-07T08:59:25;3.03;;;1.80;;
6356;SDS011;3211;53.452;-2.264;2023-08-07T09:02:09;4.50;;;1.60;;
6356;SDS011;3211;53.452;-2.264;2023-08-07T09:04:51;3.73;;;1.60;;
6356;SDS011;3211;53.452;-2.264;2023-08-07T09:07:33;4.60;;;1.90;;
6356;SDS011;3211;53.452;-2.264;2023-08-07T09:10:16;1.97;;;1.50;;
6356;SDS011;3211;53.452;-2.264;2023-08-07T09:13:00;3.07;;;1.67;;
6356;SDS011;3211;53.452;-2.264;2023-08-07T09:15:45;4.10;;;1.87;;
6356;SDS011;3211;53.452;-2.264;2023-08-07T09:18:30;2.13;;;1.70;;
6356;SDS011;3211;53.452;-2.264;2023-08-07T09:21:12;4.33;;;1.50;;
6356;SDS011;3211;53.452;-2.264;2023-08-07T09:23:56;6.77;;;1.87;;
6356;SDS011;3211;53.452;-2.264;2023-08-07T09:26:38;5.77;;;1.60;;
6356;SDS011;3211;53.452;-2.264;2023-08-07T09:29:23;3.53;;;1.60;;
6356;SDS011;3211;53.452;-2.264;2023-08-07T09:32:11;6.00;;;2.00;;
6356;SDS011;3211;53.452;-2.264;2023-08-07T09:34:54;3.97;;;1.97;;
6356;SDS011;3211;53.452;-2.264;2023-08-07T09:37:36;5.17;;;1.60;;
6356;SDS011;3211;53.452;-2.264;2023-08-07T09:40:19;3.03;;;1.47;;
6356;SDS011;3211;53.452;-2.264;2023-08-07T09:43:01;5.77;;;1.70;;
6356;SDS011;3211;53.452;-2.264;2023-08-07T09:45:44;2.27;;;1.47;;
6356;SDS011;3211;53.452;-2.264;2023-08-07T09:48:27;2.60;;;1.40;;
6356;SDS011;3211;53.452;-2.264;2023-08-07T09:51:09;6.00;;;1.60;;
6356;SDS011;3211;53.452;-2.264;2023-08-07T09:53:51;3.87;;;1.60;;
6356;SDS011;3211;53.452;-2.264;2023-08-07T09:56:34;2.63;;;1.57;;
6356;SDS011;3211;53.452;-2.264;2023-08-07T09:59:16;6.40;;;1.83;;
6356;SDS011;3211;53.452;-2.264;2023-08-07T10:01:59;2.90;;;1.77;;
6356;SDS011;3211;53.452;-2.264;2023-08-07T10:04:43;7.13;;;1.40;;
6356;SDS011;3211;53.452;-2.264;2023-08-07T10:07:26;5.30;;;1.63;;
6356;SDS011;3211;53.452;-2.264;2023-08-07T10:10:09;3.10;;;1.70;;
6356;SDS011;3211;53.452;-2.264;2023-08-07T10:12:51;4.33;;;2.00;;
6356;SDS011;3211;53.452;-2.264;2023-08-07T10:15:34;2.80;;;1.57;;
6356;SDS011;3211;53.452;-2.264;2023-08-07T10:18:16;3.37;;;1.60;;
6356;SDS011;3211;53.452;-2.264;2023-08-07T10:20:59;4.87;;;1.80;;
6356;SDS011;3211;53.452;-2.264;2023-08-07T10:23:42;5.80;;;1.83;;
6356;SDS011;3211;53.452;-2.264;2023-08-07T10:26:25;3.90;;;1.90;;
6356;SDS011;3211;53.452;-2.264;2023-08-07T10:29:09;5.27;;;2.10;;
6356;SDS011;3211;53.452;-2.264;2023-08-07T10:31:55;5.70;;;2.13;;
6356;SDS011;3211;53.452;-2.264;2023-08-07T10:34:39;7.73;;;2.53;;
6356;SDS011;3211;53.452;-2.264;2023-08-07T10:37:39;17.70;;;3.17;;
6356;SDS011;3211;53.452;-2.264;2023-08-07T10:40:22;8.07;;;2.40;;
6356;SDS011;3211;53.452;-2.264;2023-08-07T10:43:11;3.93;;;1.93;;
6356;SDS011;3211;53.452;-2.264;2023-08-07T10:45:58;7.80;;;2.97;;
6356;SDS011;3211;53.452;-2.264;2023-08-07T10:48:44;4.43;;;2.20;;
6356;SDS011;3211;53.452;-2.264;2023-08-07T10:51:28;5.57;;;1.90;;
6356;SDS011;3211;53.452;-2.264;2023-08-07T10:54:13;4.60;;;2.07;;
6356;SDS011;3211;53.452;-2.264;2023-08-07T10:56:55;6.80;;;2.43;;
6356;SDS011;3211;53.452;-2.264;2023-08-07T10:59:37;4.90;;;1.70;;
6356;SDS011;3211;53.452;-2.264;2023-08-07T11:02:23;4.50;;;1.90;;
6356;SDS011;3211;53.452;-2.264;2023-08-07T11:05:06;4.03;;;2.17;;
6356;SDS011;3211;53.452;-2.264;2023-08-07T11:07:48;7.00;;;2.57;;
6356;SDS011;3211;53.452;-2.264;2023-08-07T11:10:31;6.50;;;2.67;;
6356;SDS011;3211;53.452;-2.264;2023-08-07T11:13:13;4.30;;;2.33;;
6356;SDS011;3211;53.452;-2.264;2023-08-07T11:15:55;6.07;;;1.83;;
6356;SDS011;3211;53.452;-2.264;2023-08-07T11:18:38;8.70;;;2.47;;
6356;SDS011;3211;53.452;-2.264;2023-08-07T11:21:21;5.67;;;1.70;;
6356;SDS011;3211;53.452;-2.264;2023-08-07T11:24:05;6.40;;;2.43;;
6356;SDS011;3211;53.452;-2.264;2023-08-07T11:26:48;4.57;;;2.40;;
6356;SDS011;3211;53.452;-2.264;2023-08-07T11:29:32;5.73;;;1.90;;
6356;SDS011;3211;53.452;-2.264;2023-08-07T11:32:14;5.83;;;2.10;;
6356;SDS011;3211;53.452;-2.264;2023-08-07T11:34:56;5.23;;;1.77;;
6356;SDS011;3211;53.452;-2.264;2023-08-07T11:37:44;5.10;;;1.87;;
6356;SDS011;3211;53.452;-2.264;2023-08-07T11:40:27;5.67;;;1.83;;
6356;SDS011;3211;53.452;-2.264;2023-08-07T11:43:11;5.33;;;2.00;;
6356;SDS011;3211;53.452;-2.264;2023-08-07T11:45:53;5.50;;;2.07;;
6356;SDS011;3211;53.452;-2.264;2023-08-07T11:48:36;5.63;;;2.17;;
6356;SDS011;3211;53.452;-2.264;2023-08-07T11:51:19;10.17;;;2.30;;
6356;SDS011;3211;53.452;-2.264;2023-08-07T11:54:02;15.30;;;3.90;;
6356;SDS011;3211;53.452;-2.264;2023-08-07T11:56:45;4.43;;;1.63;;
6356;SDS011;3211;53.452;-2.264;2023-08-07T11:59:28;2.27;;;1.50;;
6356;SDS011;3211;53.452;-2.264;2023-08-07T12:02:10;3.53;;;1.73;;
6356;SDS011;3211;53.452;-2.264;2023-08-07T12:04:57;6.03;;;1.83;;
6356;SDS011;3211;53.452;-2.264;2023-08-07T12:07:40;6.37;;;2.60;;
6356;SDS011;3211;53.452;-2.264;2023-08-07T12:10:22;3.67;;;2.00;;
6356;SDS011;3211;53.452;-2.264;2023-08-07T12:13:07;4.50;;;1.77;;
6356;SDS011;3211;53.452;-2.264;2023-08-07T12:15:51;4.30;;;1.67;;
6356;SDS011;3211;53.452;-2.264;2023-08-07T12:18:34;2.57;;;1.80;;
6356;SDS011;3211;53.452;-2.264;2023-08-07T12:21:18;4.87;;;2.07;;
6356;SDS011;3211;53.452;-2.264;2023-08-07T12:24:04;2.43;;;1.33;;
6356;SDS011;3211;53.452;-2.264;2023-08-07T12:26:49;2.07;;;1.30;;
6356;SDS011;3211;53.452;-2.264;2023-08-07T12:29:31;4.07;;;1.97;;
6356;SDS011;3211;53.452;-2.264;2023-08-07T12:32:14;4.27;;;1.40;;
6356;SDS011;3211;53.452;-2.264;2023-08-07T12:34:56;2.53;;;1.60;;
6356;SDS011;3211;53.452;-2.264;2023-08-07T12:37:38;7.20;;;2.13;;
6356;SDS011;3211;53.452;-2.264;2023-08-07T12:40:20;4.67;;;1.80;;
6356;SDS011;3211;53.452;-2.264;2023-08-07T12:43:03;5.77;;;1.90;;
6356;SDS011;3211;53.452;-2.264;2023-08-07T12:45:45;3.07;;;1.40;;
6356;SDS011;3211;53.452;-2.264;2023-08-07T12:48:29;5.53;;;2.23;;
6356;SDS011;3211;53.452;-2.264;2023-08-07T12:51:11;2.50;;;1.67;;
6356;SDS011;3211;53.452;-2.264;2023-08-07T12:53:53;1.50;;;1.40;;
6356;SDS011;3211;53.452;-2.264;2023-08-07T12:56:34;2.90;;;1.43;;
6356;SDS011;3211;53.452;-2.264;2023-08-07T12:59:16;3.07;;;1.57;;
6356;SDS011;3211;53.452;-2.264;2023-08-07T13:01:58;4.83;;;1.70;;
6356;SDS011;3211;53.452;-2.264;2023-08-07T13:04:42;6.90;;;1.53;;
6356;SDS011;3211;53.452;-2.264;2023-08-07T13:07:23;3.03;;;1.43;;
6356;SDS011;3211;53.452;-2.264;2023-08-07T13:10:06;3.50;;;1.50;;
6356;SDS011;3211;53.452;-2.264;2023-08-07T13:12:49;3.27;;;1.87;;
6356;SDS011;3211;53.452;-2.264;2023-08-07T13:15:31;6.60;;;1.43;;
6356;SDS011;3211;53.452;-2.264;2023-08-07T13:18:13;2.07;;;1.60;;
6356;SDS011;3211;53.452;-2.264;2023-08-07T13:20:58;4.53;;;1.63;;
6356;SDS011;3211;53.452;-2.264;2023-08-07T13:23:40;2.03;;;1.40;;
6356;SDS011;3211;53.452;-2.264;2023-08-07T13:26:22;2.97;;;1.50;;
6356;SDS011;3211;53.452;-2.264;2023-08-07T13:29:04;1.43;;;1.20;;
6356;SDS011;3211;53.452;-2.264;2023-08-07T13:31:45;2.30;;;1.27;;
6356;SDS011;3211;53.452;-2.264;2023-08-07T13:34:28;2.43;;;1.30;;
6356;SDS011;3211;53.452;-2.264;2023-08-07T13:37:11;2.87;;;1.50;;
6356;SDS011;3211;53.452;-2.264;2023-08-07T13:39:54;2.63;;;1.23;;
6356;SDS011;3211;53.452;-2.264;2023-08-07T13:42:36;3.97;;;1.70;;
6356;SDS011;3211;53.452;-2.264;2023-08-07T13:45:18;1.30;;;1.20;;
6356;SDS011;3211;53.452;-2.264;2023-08-07T13:48:00;2.67;;;1.30;;
6356;SDS011;3211;53.452;-2.264;2023-08-07T13:50:43;1.60;;;1.23;;
6356;SDS011;3211;53.452;-2.264;2023-08-07T13:53:27;1.47;;;1.20;;
6356;SDS011;3211;53.452;-2.264;2023-08-07T13:56:09;2.90;;;1.40;;
6356;SDS011;3211;53.452;-2.264;2023-08-07T13:58:52;1.93;;;1.27;;
6356;SDS011;3211;53.452;-2.264;2023-08-07T14:01:35;4.20;;;1.60;;
6356;SDS011;3211;53.452;-2.264;2023-08-07T14:04:17;3.20;;;1.50;;
6356;SDS011;3211;53.452;-2.264;2023-08-07T14:07:01;4.60;;;1.40;;
6356;SDS011;3211;53.452;-2.264;2023-08-07T14:09:45;3.50;;;1.30;;
6356;SDS011;3211;53.452;-2.264;2023-08-07T14:12:27;4.13;;;1.43;;
6356;SDS011;3211;53.452;-2.264;2023-08-07T14:15:09;2.57;;;1.40;;
6356;SDS011;3211;53.452;-2.264;2023-08-07T14:17:52;2.53;;;1.30;;
6356;SDS011;3211;53.452;-2.264;2023-08-07T14:20:34;3.10;;;1.40;;
6356;SDS011;3211;53.452;-2.264;2023-08-07T14:23:16;3.90;;;1.53;;
6356;SDS011;3211;53.452;-2.264;2023-08-07T14:26:00;3.90;;;1.40;;
6356;SDS011;3211;53.452;-2.264;2023-08-07T14:28:42;3.13;;;1.50;;
6356;SDS011;3211;53.452;-2.264;2023-08-07T14:31:24;2.13;;;1.50;;
6356;SDS011;3211;53.452;-2.264;2023-08-07T14:34:06;3.57;;;1.67;;
6356;SDS011;3211;53.452;-2.264;2023-08-07T14:36:48;3.63;;;1.50;;
6356;SDS011;3211;53.452;-2.264;2023-08-07T14:39:30;1.83;;;1.30;;
6356;SDS011;3211;53.452;-2.264;2023-08-07T14:42:14;1.87;;;1.27;;
6356;SDS011;3211;53.452;-2.264;2023-08-07T14:44:59;3.97;;;1.47;;
6356;SDS011;3211;53.452;-2.264;2023-08-07T14:47:41;5.90;;;1.47;;
6356;SDS011;3211;53.452;-2.264;2023-08-07T14:50:23;1.97;;;1.40;;
6356;SDS011;3211;53.452;-2.264;2023-08-07T14:53:05;2.40;;;1.60;;
6356;SDS011;3211;53.452;-2.264;2023-08-07T14:55:47;2.20;;;1.50;;
6356;SDS011;3211;53.452;-2.264;2023-08-07T14:58:30;2.47;;;1.57;;
6356;SDS011;3211;53.452;-2.264;2023-08-07T15:01:13;4.03;;;1.50;;
6356;SDS011;3211;53.452;-2.264;2023-08-07T15:03:55;1.63;;;1.30;;
6356;SDS011;3211;53.452;-2.264;2023-08-07T15:06:37;2.90;;;1.33;;
6356;SDS011;3211;53.452;-2.264;2023-08-07T15:09:21;2.80;;;1.60;;
6356;SDS011;3211;53.452;-2.264;2023-08-07T15:12:03;2.20;;;1.30;;
6356;SDS011;3211;53.452;-2.264;2023-08-07T15:14:48;3.07;;;1.33;;
6356;SDS011;3211;53.452;-2.264;2023-08-07T15:17:30;1.70;;;1.40;;
6356;SDS011;3211;53.452;-2.264;2023-08-07T15:20:12;4.83;;;1.60;;
6356;SDS011;3211;53.452;-2.264;2023-08-07T15:22:54;2.90;;;1.77;;
6356;SDS011;3211;53.452;-2.264;2023-08-07T15:25:36;2.77;;;1.80;;
6356;SDS011;3211;53.452;-2.264;2023-08-07T15:28:18;4.03;;;1.53;;
6356;SDS011;3211;53.452;-2.264;2023-08-07T15:31:02;6.30;;;1.30;;
6356;SDS011;3211;53.452;-2.264;2023-08-07T15:33:44;1.80;;;1.33;;
6356;SDS011;3211;53.452;-2.264;2023-08-07T15:36:29;1.40;;;1.20;;
6356;SDS011;3211;53.452;-2.264;2023-08-07T15:39:11;2.57;;;1.50;;
6356;SDS011;3211;53.452;-2.264;2023-08-07T15:41:53;2.40;;;1.30;;
6356;SDS011;3211;53.452;-2.264;2023-08-07T15:44:35;2.37;;;1.40;;
6356;SDS011;3211;53.452;-2.264;2023-08-07T15:47:19;2.57;;;1.50;;
6356;SDS011;3211;53.452;-2.264;2023-08-07T15:50:01;2.27;;;1.40;;
6356;SDS011;3211;53.452;-2.264;2023-08-07T15:52:44;2.30;;;1.40;;
6356;SDS011;3211;53.452;-2.264;2023-08-07T15:55:26;1.80;;;1.30;;
6356;SDS011;3211;53.452;-2.264;2023-08-07T15:58:08;3.77;;;1.53;;
6356;SDS011;3211;53.452;-2.264;2023-08-07T16:00:50;1.53;;;1.20;;
6356;SDS011;3211;53.452;-2.264;2023-08-07T16:03:33;2.60;;;1.43;;
6356;SDS011;3211;53.452;-2.264;2023-08-07T16:06:16;1.53;;;1.27;;
6356;SDS011;3211;53.452;-2.264;2023-08-07T16:08:59;1.70;;;1.40;;
6356;SDS011;3211;53.452;-2.264;2023-08-07T16:11:41;2.43;;;1.70;;
6356;SDS011;3211;53.452;-2.264;2023-08-07T16:14:23;2.60;;;1.47;;
6356;SDS011;3211;53.452;-2.264;2023-08-07T16:17:05;2.13;;;1.40;;
6356;SDS011;3211;53.452;-2.264;2023-08-07T16:19:48;1.57;;;1.20;;
6356;SDS011;3211;53.452;-2.264;2023-08-07T16:22:30;2.40;;;1.60;;
6356;SDS011;3211;53.452;-2.264;2023-08-07T16:25:14;4.93;;;1.63;;
6356;SDS011;3211;53.452;-2.264;2023-08-07T16:27:56;1.57;;;1.20;;
6356;SDS011;3211;53.452;-2.264;2023-08-07T16:30:38;2.33;;;1.23;;
6356;SDS011;3211;53.452;-2.264;2023-08-07T16:33:20;2.27;;;1.30;;
6356;SDS011;3211;53.452;-2.264;2023-08-07T16:36:03;1.20;;;1.10;;